createdAt,value
2023-03-05T04:01:31.812Z,41.73
2023-03-05T04:03:59.070Z,39.17
2023-03-05T04:06:26.344Z,38.97
2023-03-05T04:08:53.824Z,37.67
2023-03-05T04:11:21.069Z,38.13
2023-03-05T04:13:49.094Z,36.30
2023-03-05T04:16:17.296Z,38.20
2023-03-05T04:18:44.757Z,37.40
2023-03-05T04:21:12.389Z,38.87
2023-03-05T04:23:40.134Z,38.57
2023-03-05T04:26:07.334Z,36.53
2023-03-05T04:28:35.502Z,36.13
2023-03-05T04:31:03.447Z,37.87
2023-03-05T04:33:30.710Z,35.87
2023-03-05T04:35:57.992Z,37.90
2023-03-05T04:38:25.276Z,39.27
2023-03-05T04:40:52.530Z,36.20
2023-03-05T04:43:19.692Z,35.30
2023-03-05T04:45:46.894Z,34.37
2023-03-05T04:48:14.222Z,36.93
2023-03-05T04:50:41.435Z,36.80
2023-03-05T04:53:08.660Z,35.73
2023-03-05T04:55:35.818Z,35.07
2023-03-05T04:58:03.182Z,35.03
2023-03-05T05:00:30.363Z,35.93
2023-03-05T05:02:57.734Z,36.73
2023-03-05T05:05:27.132Z,35.00
2023-03-05T05:07:56.458Z,35.67
2023-03-05T05:10:27.533Z,35.07
2023-03-05T05:12:54.892Z,36.43
2023-03-05T05:15:22.106Z,33.33
2023-03-05T05:17:49.458Z,32.53
2023-03-05T05:20:17.593Z,35.33
2023-03-05T05:22:44.794Z,35.10
2023-03-05T05:25:12.204Z,33.30
2023-03-05T05:27:40.175Z,35.67
2023-03-05T05:30:09.745Z,33.63
2023-03-05T05:32:36.984Z,33.53
2023-03-05T05:35:04.471Z,33.50
2023-03-05T05:37:31.717Z,34.90
2023-03-05T05:39:59.106Z,33.20
2023-03-05T05:42:26.298Z,34.77
2023-03-05T05:44:55.483Z,36.10
2023-03-05T05:47:22.702Z,34.37
2023-03-05T05:49:49.985Z,33.43
2023-03-05T05:52:17.486Z,34.00
2023-03-05T05:54:44.943Z,32.87
2023-03-05T05:57:12.094Z,32.33
2023-03-05T05:59:39.573Z,34.17
2023-03-05T06:02:07.995Z,35.13
2023-03-05T06:04:36.132Z,31.33
2023-03-05T06:07:04.229Z,34.13
2023-03-05T06:09:31.420Z,32.87
2023-03-05T06:11:58.645Z,35.03
2023-03-05T06:14:25.910Z,32.13
2023-03-05T06:16:53.278Z,32.53
2023-03-05T06:19:20.549Z,32.67
2023-03-05T06:21:47.725Z,33.17
2023-03-05T06:24:15.043Z,33.43
2023-03-05T06:26:42.325Z,33.23
2023-03-05T06:29:09.536Z,31.77
2023-03-05T06:31:37.390Z,32.50
2023-03-05T06:34:04.871Z,33.50
2023-03-05T06:36:32.226Z,33.13
2023-03-05T06:38:59.578Z,33.40
2023-03-05T06:41:29.427Z,33.63
2023-03-05T06:43:57.527Z,35.93
2023-03-05T06:46:29.900Z,33.40
2023-03-05T06:48:59.891Z,33.43
2023-03-05T06:51:32.612Z,34.17
2023-03-05T06:54:12.228Z,33.47
2023-03-05T06:56:41.581Z,32.73
2023-03-05T06:59:10.819Z,31.03
2023-03-05T07:01:38.306Z,31.50
2023-03-05T07:04:06.825Z,32.13
2023-03-05T07:06:36.202Z,33.93
2023-03-05T07:09:05.565Z,32.47
2023-03-05T07:11:34.138Z,36.60
2023-03-05T07:14:01.771Z,35.33
2023-03-05T07:16:31.623Z,39.17
2023-03-05T07:19:00.828Z,35.80
2023-03-05T07:21:29.880Z,35.03
2023-03-05T07:23:58.969Z,34.27
2023-03-05T07:26:27.642Z,31.30
2023-03-05T07:28:55.214Z,33.03
2023-03-05T07:31:27.433Z,32.43
2023-03-05T07:33:54.737Z,32.13
2023-03-05T07:36:21.996Z,31.10
2023-03-05T07:38:49.288Z,31.50
2023-03-05T07:41:21.152Z,32.77
2023-03-05T07:43:50.724Z,30.17
2023-03-05T07:46:19.761Z,30.53
2023-03-05T07:48:47.048Z,29.70
2023-03-05T07:51:17.803Z,29.87
2023-03-05T07:53:46.483Z,29.40
2023-03-05T07:56:14.195Z,28.27
2023-03-05T07:58:41.442Z,30.43
2023-03-05T08:01:15.609Z,29.50
2023-03-05T08:03:43.265Z,29.30
2023-03-05T08:06:11.783Z,29.70
2023-03-05T08:08:39.328Z,29.27
2023-03-05T08:11:12.038Z,28.07
2023-03-05T08:13:39.962Z,28.90
2023-03-05T08:16:10.952Z,28.13
2023-03-05T08:18:38.273Z,25.60
2023-03-05T08:21:06.085Z,29.37
2023-03-05T08:23:34.537Z,26.13
2023-03-05T08:26:01.897Z,27.77
2023-03-05T08:28:29.070Z,26.40
2023-03-05T08:30:56.433Z,24.67
2023-03-05T08:33:23.649Z,26.17
2023-03-05T08:35:50.866Z,24.57
2023-03-05T08:38:20.952Z,24.00
2023-03-05T08:40:48.708Z,24.73
2023-03-05T08:43:17.752Z,24.73
2023-03-05T08:45:49.619Z,24.63
2023-03-05T08:48:16.837Z,25.07
2023-03-05T08:50:44.256Z,24.03
2023-03-05T08:53:11.455Z,24.60
2023-03-05T08:55:38.815Z,23.87
2023-03-05T08:58:05.991Z,25.57
2023-03-05T09:00:33.270Z,22.60
2023-03-05T09:03:00.499Z,25.10
2023-03-05T09:05:27.860Z,25.30
2023-03-05T09:07:55.116Z,19.70
2023-03-05T09:10:22.342Z,19.93
2023-03-05T09:12:49.637Z,19.37
2023-03-05T09:15:16.870Z,20.00
2023-03-05T09:17:44.027Z,20.03
2023-03-05T09:20:13.189Z,13.80
2023-03-05T09:22:40.576Z,13.07
2023-03-05T09:25:10.740Z,13.63
2023-03-05T09:27:38.667Z,13.63
2023-03-05T09:30:06.982Z,14.97
2023-03-05T09:32:34.334Z,15.67
2023-03-05T09:35:01.621Z,16.37
2023-03-05T09:37:29.426Z,14.73
2023-03-05T09:39:57.221Z,14.77
2023-03-05T09:42:44.090Z,15.53
2023-03-05T09:45:32.338Z,15.83
2023-03-05T09:48:09.828Z,14.77
2023-03-05T09:50:42.317Z,15.27
2023-03-05T09:53:35.097Z,15.30
2023-03-05T09:56:12.141Z,15.07
2023-03-05T09:58:59.554Z,13.53
2023-03-05T10:01:50.432Z,14.00
2023-03-05T10:04:28.755Z,12.23
2023-03-05T10:07:02.721Z,13.50
2023-03-05T10:09:56.067Z,13.80
2023-03-05T10:12:32.633Z,11.93
2023-03-05T10:15:03.027Z,11.70
2023-03-05T10:17:55.340Z,11.33
2023-03-05T10:20:44.604Z,10.67
2023-03-05T10:23:36.285Z,10.53
2023-03-05T10:26:25.056Z,10.73
2023-03-05T10:29:18.431Z,11.00
2023-03-05T10:32:10.826Z,11.03
2023-03-05T10:34:55.484Z,10.83
2023-03-05T10:37:41.131Z,10.53
2023-03-05T10:40:13.557Z,10.53
2023-03-05T10:43:14.881Z,10.40
2023-03-05T10:45:45.476Z,11.20
2023-03-05T10:48:24.610Z,11.43
2023-03-05T10:51:04.610Z,10.83
2023-03-05T10:53:52.977Z,11.73
2023-03-05T10:56:23.250Z,11.40
2023-03-05T10:58:52.681Z,11.23
2023-03-05T11:01:28.584Z,10.53
2023-03-05T11:04:00.206Z,11.30
2023-03-05T11:06:40.478Z,12.30
2023-03-05T11:09:19.325Z,12.20
2023-03-05T11:12:15.823Z,13.83
2023-03-05T11:15:09.282Z,12.57
2023-03-05T11:17:44.746Z,12.73
2023-03-05T11:20:26.976Z,13.17
2023-03-05T11:23:15.688Z,14.20
2023-03-05T11:25:54.096Z,13.17
2023-03-05T11:28:32.890Z,12.80
2023-03-05T11:31:20.589Z,12.60
2023-03-05T11:34:01.585Z,12.50
2023-03-05T11:36:32.003Z,12.43
2023-03-05T11:39:07.889Z,11.93
2023-03-05T11:41:48.598Z,13.90
2023-03-05T11:44:49.619Z,12.47
2023-03-05T11:47:23.858Z,12.53
2023-03-05T11:49:55.917Z,14.07
2023-03-05T11:52:32.166Z,12.43
2023-03-05T11:55:15.549Z,13.17
2023-03-05T11:58:01.569Z,13.57
2023-03-05T12:00:31.377Z,13.03
2023-03-05T12:03:04.267Z,12.43
2023-03-05T12:05:32.771Z,12.77
2023-03-05T12:08:02.259Z,12.02
2023-03-05T12:10:29.462Z,12.82
2023-03-05T12:13:06.814Z,12.50
2023-03-05T12:15:37.070Z,11.80
2023-03-05T12:18:28.783Z,11.60
2023-03-05T12:21:14.038Z,12.87
2023-03-05T12:24:04.847Z,13.50
2023-03-05T12:26:54.282Z,13.13
2023-03-05T12:29:42.840Z,13.27
2023-03-05T12:32:43.211Z,13.95
2023-03-05T12:35:36.924Z,13.33
2023-03-05T12:38:26.908Z,12.93
2023-03-05T12:41:23.179Z,13.75
2023-03-05T12:44:05.379Z,14.13
2023-03-05T12:46:35.712Z,13.17
2023-03-05T12:49:18.065Z,13.03
2023-03-05T12:51:47.799Z,13.52
2023-03-05T12:54:20.593Z,12.75
2023-03-05T12:56:48.101Z,13.50
2023-03-05T12:59:21.523Z,14.02
2023-03-05T13:01:59.309Z,14.48
2023-03-05T13:04:31.093Z,13.20
2023-03-05T13:07:04.349Z,14.40
2023-03-05T13:09:36.230Z,15.30
2023-03-05T13:12:11.534Z,13.33
2023-03-05T13:14:56.944Z,15.07
2023-03-05T13:17:31.687Z,13.73
2023-03-05T13:20:00.695Z,13.63
2023-03-05T13:22:28.338Z,14.23
2023-03-05T13:25:20.633Z,13.50
2023-03-05T13:27:47.894Z,13.93
2023-03-05T13:30:24.061Z,14.73
2023-03-05T13:33:02.924Z,13.47
2023-03-05T13:35:34.484Z,14.40
2023-03-05T13:38:02.190Z,12.80
2023-03-05T13:40:31.555Z,12.13
2023-03-05T13:43:18.182Z,13.23
2023-03-05T13:45:54.949Z,12.47
2023-03-05T13:48:22.709Z,13.30
2023-03-05T13:50:59.102Z,14.60
2023-03-05T13:53:31.526Z,12.57
2023-03-05T13:56:01.760Z,13.80
2023-03-05T13:58:53.714Z,14.37
2023-03-05T14:01:57.478Z,13.97
2023-03-05T14:04:41.237Z,14.03
2023-03-05T14:07:31.371Z,13.83
2023-03-05T14:09:59.938Z,13.17
2023-03-05T14:12:42.588Z,13.93
2023-03-05T14:15:39.801Z,13.87
2023-03-05T14:18:12.540Z,12.73
2023-03-05T14:20:41.476Z,14.03
2023-03-05T14:23:43.116Z,14.60
2023-03-05T14:26:29.407Z,13.93
2023-03-05T14:29:04.452Z,14.60
2023-03-05T14:31:45.675Z,13.97
2023-03-05T14:34:24.450Z,12.57
2023-03-05T14:36:54.043Z,13.17
2023-03-05T14:39:34.393Z,13.07
2023-03-05T14:42:39.265Z,11.60
2023-03-05T14:45:15.896Z,12.50
2023-03-05T14:47:43.555Z,12.40
2023-03-05T14:50:18.718Z,11.70
2023-03-05T14:52:47.256Z,11.00
2023-03-05T14:55:20.117Z,12.33
2023-03-05T14:57:48.110Z,11.77
2023-03-05T15:00:24.584Z,11.93
2023-03-05T15:02:52.411Z,11.33
2023-03-05T15:05:20.385Z,11.20
2023-03-05T15:07:48.534Z,14.23
2023-03-05T15:10:17.991Z,11.53
2023-03-05T15:12:45.511Z,12.53
2023-03-05T15:15:16.488Z,12.40
2023-03-05T15:17:48.625Z,11.27
2023-03-05T15:20:24.818Z,13.10
2023-03-05T15:22:52.743Z,11.13
2023-03-05T15:25:22.662Z,11.10
2023-03-05T15:27:50.989Z,11.37
2023-03-05T15:30:31.090Z,12.07
2023-03-05T15:33:01.671Z,10.93
2023-03-05T15:35:29.236Z,12.43
2023-03-05T15:37:57.913Z,11.57
2023-03-05T15:40:27.639Z,11.60
2023-03-05T15:42:56.322Z,11.13
2023-03-05T15:45:23.678Z,11.87
2023-03-05T15:47:52.798Z,12.03
2023-03-05T15:50:21.333Z,11.93
2023-03-05T15:52:49.346Z,11.93
2023-03-05T15:55:18.308Z,12.23
2023-03-05T15:57:48.313Z,11.67
2023-03-05T16:00:18.638Z,11.20
2023-03-05T16:02:45.838Z,11.47
2023-03-05T16:05:13.128Z,11.13
2023-03-05T16:07:44.296Z,11.60
2023-03-05T16:10:17.635Z,11.90
2023-03-05T16:12:47.114Z,11.33
2023-03-05T16:15:19.844Z,11.00
2023-03-05T16:17:50.684Z,12.43
2023-03-05T16:20:18.225Z,13.37
2023-03-05T16:22:46.389Z,11.67
2023-03-05T16:25:13.758Z,11.13
2023-03-05T16:27:40.986Z,11.93
2023-03-05T16:30:10.033Z,12.43
2023-03-05T16:32:38.500Z,13.37
2023-03-05T16:35:06.328Z,11.13
2023-03-05T16:37:33.668Z,12.20
2023-03-05T16:40:00.930Z,11.57
2023-03-05T16:42:28.136Z,10.33
2023-03-05T16:44:55.378Z,10.93
2023-03-05T16:47:22.560Z,12.23
2023-03-05T16:49:49.768Z,13.20
2023-03-05T16:52:19.817Z,11.27
2023-03-05T16:54:48.496Z,11.20
2023-03-05T16:57:16.115Z,12.53
2023-03-05T16:59:43.932Z,12.43
2023-03-05T17:02:13.220Z,11.07
2023-03-05T17:04:40.700Z,12.33
2023-03-05T17:07:08.266Z,11.53
2023-03-05T17:09:36.114Z,13.20
2023-03-05T17:12:03.603Z,11.23
2023-03-05T17:14:30.817Z,11.53
2023-03-05T17:16:58.097Z,10.97
2023-03-05T17:19:25.342Z,11.43
2023-03-05T17:21:52.630Z,11.03
2023-03-05T17:24:22.355Z,11.53
2023-03-05T17:26:50.394Z,10.97
2023-03-05T17:29:19.054Z,10.57
2023-03-05T17:31:46.838Z,10.80
2023-03-05T17:34:15.651Z,10.20
2023-03-05T17:36:45.251Z,11.40
2023-03-05T17:39:13.184Z,10.70
2023-03-05T17:41:40.382Z,11.40
2023-03-05T17:44:07.552Z,12.30
2023-03-05T17:46:34.754Z,11.30
2023-03-05T17:49:01.906Z,10.03
2023-03-05T17:51:29.065Z,10.93
2023-03-05T17:53:56.343Z,10.93
2023-03-05T17:56:25.200Z,11.37
2023-03-05T17:58:53.622Z,12.00
2023-03-05T18:01:31.956Z,12.07
2023-03-05T18:03:59.718Z,11.73
2023-03-05T18:06:27.608Z,11.73
2023-03-05T18:08:54.818Z,11.50
2023-03-05T18:11:22.090Z,11.60
2023-03-05T18:13:49.834Z,11.33
2023-03-05T18:16:18.176Z,10.90
2023-03-05T18:18:45.672Z,12.73
2023-03-05T18:21:17.761Z,12.00
2023-03-05T18:23:45.249Z,11.87
2023-03-05T18:26:12.602Z,12.03
2023-03-05T18:28:39.954Z,13.80
2023-03-05T18:31:07.268Z,12.70
2023-03-05T18:33:34.645Z,12.03
2023-03-05T18:36:01.909Z,12.37
2023-03-05T18:38:29.721Z,11.77
2023-03-05T18:40:57.337Z,11.23
2023-03-05T18:43:24.836Z,13.70
2023-03-05T18:45:54.639Z,11.90
2023-03-05T18:48:22.240Z,11.70
2023-03-05T18:50:51.400Z,12.13
2023-03-05T18:53:19.276Z,11.50
2023-03-05T18:55:46.516Z,11.63
2023-03-05T18:58:14.255Z,12.10
2023-03-05T19:00:44.786Z,12.80
2023-03-05T19:03:13.318Z,12.30
2023-03-05T19:05:41.687Z,12.40
2023-03-05T19:08:08.942Z,11.93
2023-03-05T19:10:36.378Z,13.73
2023-03-05T19:13:32.956Z,13.03
2023-03-05T19:16:02.325Z,12.37
2023-03-05T19:18:33.703Z,11.70
2023-03-05T19:21:00.843Z,10.53
2023-03-05T19:23:28.059Z,13.43
2023-03-05T19:25:55.378Z,15.23
2023-03-05T19:28:22.540Z,18.03
2023-03-05T19:30:50.250Z,17.70
2023-03-05T19:33:17.488Z,14.07
2023-03-05T19:35:44.721Z,15.60
2023-03-05T19:38:11.945Z,14.70
2023-03-05T19:40:41.571Z,16.50
2023-03-05T19:43:08.802Z,13.70
2023-03-05T19:45:36.017Z,12.87
2023-03-05T19:48:03.224Z,12.63
2023-03-05T19:50:31.158Z,12.90
2023-03-05T19:52:59.432Z,13.80
2023-03-05T19:55:26.638Z,15.00
2023-03-05T19:57:53.782Z,14.23
2023-03-05T20:00:21.456Z,13.97
2023-03-05T20:02:48.733Z,15.00
2023-03-05T20:05:15.981Z,16.30
2023-03-05T20:07:43.182Z,18.27
2023-03-05T20:10:10.987Z,17.20
2023-03-05T20:12:39.217Z,17.10
2023-03-05T20:15:06.841Z,14.60
2023-03-05T20:17:34.046Z,14.83
2023-03-05T20:20:01.247Z,14.47
2023-03-05T20:22:28.405Z,13.20
2023-03-05T20:24:55.642Z,13.27
2023-03-05T20:27:22.826Z,12.40
2023-03-05T20:29:50.087Z,14.60
2023-03-05T20:32:17.326Z,13.47
2023-03-05T20:34:44.502Z,12.77
2023-03-05T20:37:11.871Z,13.53
2023-03-05T20:39:39.011Z,15.00
2023-03-05T20:42:06.312Z,13.20
2023-03-05T20:44:33.476Z,12.30
2023-03-05T20:47:12.623Z,13.60
2023-03-05T20:49:39.859Z,14.37
2023-03-05T20:52:07.046Z,12.07
2023-03-05T20:54:34.304Z,14.47
2023-03-05T20:57:01.507Z,13.60
2023-03-05T20:59:28.708Z,13.20
2023-03-05T21:01:55.878Z,12.50
2023-03-05T21:04:23.249Z,12.17
2023-03-05T21:06:54.026Z,13.13
2023-03-05T21:09:21.420Z,17.67
2023-03-05T21:11:48.645Z,24.47
2023-03-05T21:14:15.858Z,19.07
2023-03-05T21:16:43.044Z,13.80
2023-03-05T21:19:10.306Z,13.03
2023-03-05T21:21:39.037Z,14.40
2023-03-05T21:24:06.556Z,14.10
2023-03-05T21:26:33.902Z,13.20
2023-03-05T21:29:01.076Z,15.87
2023-03-05T21:31:28.316Z,15.37
2023-03-05T21:33:55.564Z,15.00
2023-03-05T21:36:22.763Z,14.77
2023-03-05T21:38:50.245Z,13.77
2023-03-05T21:41:18.201Z,13.50
2023-03-05T21:43:45.665Z,12.97
2023-03-05T21:46:13.286Z,14.33
2023-03-05T21:48:40.496Z,14.00
2023-03-05T21:51:10.010Z,13.87
2023-03-05T21:53:37.188Z,13.73
2023-03-05T21:56:18.677Z,13.73
2023-03-05T21:58:46.571Z,14.60
